createdAt,value
2023-02-28T00:03:19.765Z,3.30
2023-02-28T00:07:24.123Z,2.72
2023-02-28T00:11:27.940Z,3.35
2023-02-28T00:15:33.177Z,2.42
2023-02-28T00:19:36.630Z,2.60
2023-02-28T00:23:40.181Z,2.00
2023-02-28T00:27:44.860Z,1.90
2023-02-28T00:31:48.511Z,2.33
2023-02-28T00:35:52.575Z,2.90
2023-02-28T00:39:58.623Z,4.72
2023-02-28T00:44:02.071Z,2.28
2023-02-28T00:48:05.903Z,2.33
2023-02-28T00:52:09.442Z,3.38
2023-02-28T00:56:12.855Z,2.38
2023-02-28T01:00:16.790Z,2.63
2023-02-28T01:04:20.417Z,2.85
2023-02-28T01:08:24.474Z,2.38
2023-02-28T01:12:30.485Z,3.17
2023-02-28T01:16:34.410Z,3.67
2023-02-28T01:20:39.968Z,3.25
2023-02-28T01:24:43.581Z,2.63
2023-02-28T01:28:51.020Z,1.77
2023-02-28T01:32:55.360Z,2.08
2023-02-28T01:37:00.382Z,1.90
2023-02-28T01:41:05.393Z,3.20
2023-02-28T01:45:24.889Z,3.30
2023-02-28T01:49:28.756Z,3.33
2023-02-28T01:53:37.778Z,1.88
2023-02-28T01:57:47.832Z,2.55
2023-02-28T02:01:52.621Z,2.30
2023-02-28T02:05:56.208Z,4.47
2023-02-28T02:10:07.231Z,3.08
2023-02-28T02:14:35.582Z,6.43
2023-02-28T02:19:03.936Z,1.80
2023-02-28T02:23:28.076Z,3.08
2023-02-28T02:27:40.961Z,2.10
2023-02-28T02:32:26.213Z,3.78
2023-02-28T02:36:39.548Z,1.48
2023-02-28T02:41:13.690Z,2.95
2023-02-28T02:45:36.992Z,2.60
2023-02-28T02:49:45.181Z,3.17
2023-02-28T02:54:07.938Z,6.10
2023-02-28T02:58:17.329Z,3.45
2023-02-28T03:02:24.267Z,2.50
2023-02-28T03:06:29.029Z,2.17
2023-02-28T03:10:40.953Z,2.90
2023-02-28T03:15:07.157Z,2.33
2023-02-28T03:19:21.406Z,2.55
2023-02-28T03:23:41.699Z,3.22
2023-02-28T03:27:54.082Z,4.00
2023-02-28T03:32:05.768Z,2.67
2023-02-28T03:36:18.813Z,2.17
2023-02-28T03:40:27.515Z,2.03
2023-02-28T03:44:52.373Z,2.25
2023-02-28T03:49:05.094Z,3.08
2023-02-28T03:53:33.921Z,3.13
2023-02-28T03:58:01.298Z,4.28
2023-02-28T04:02:04.885Z,2.45
2023-02-28T04:06:15.335Z,3.42
2023-02-28T04:10:19.764Z,1.90
2023-02-28T04:14:23.602Z,2.30
2023-02-28T04:18:27.848Z,3.80
2023-02-28T04:22:31.308Z,3.60
2023-02-28T04:26:37.100Z,3.38
2023-02-28T04:30:40.564Z,3.67
2023-02-28T04:34:44.404Z,3.42
2023-02-28T04:38:48.093Z,3.47
2023-02-28T04:42:52.369Z,3.63
2023-02-28T04:46:58.839Z,2.72
2023-02-28T04:51:10.185Z,2.95
2023-02-28T04:55:13.699Z,3.20
2023-02-28T04:59:17.333Z,3.63
2023-02-28T05:03:23.356Z,3.72
2023-02-28T05:07:28.130Z,2.40
2023-02-28T05:11:37.275Z,3.88
2023-02-28T05:15:41.590Z,3.45
2023-02-28T05:19:46.224Z,2.72
2023-02-28T05:23:49.617Z,2.85
2023-02-28T05:27:55.548Z,3.70
2023-02-28T05:31:59.656Z,3.70
2023-02-28T05:36:03.346Z,3.47
2023-02-28T05:40:08.921Z,3.72
2023-02-28T05:44:13.672Z,3.33
2023-02-28T05:48:19.353Z,2.42
2023-02-28T05:52:22.993Z,3.13
2023-02-28T05:56:26.490Z,1.67
2023-02-28T06:00:29.941Z,3.03
2023-02-28T06:04:34.695Z,3.25
2023-02-28T06:08:38.070Z,2.70
2023-02-28T06:12:42.897Z,2.78
2023-02-28T06:16:46.639Z,2.35
2023-02-28T06:20:56.784Z,3.03
2023-02-28T06:25:00.243Z,2.20
2023-02-28T06:29:06.193Z,1.80
2023-02-28T06:33:09.571Z,1.80
2023-02-28T06:37:13.844Z,1.33
2023-02-28T06:41:17.265Z,1.88
2023-02-28T06:45:20.873Z,1.92
2023-02-28T06:49:24.506Z,1.30
2023-02-28T06:53:27.961Z,2.00
2023-02-28T06:57:33.704Z,1.50
2023-02-28T07:01:38.034Z,1.73
2023-02-28T07:05:41.428Z,1.50
2023-02-28T07:09:44.857Z,1.23
2023-02-28T07:13:48.845Z,1.10
2023-02-28T07:17:52.337Z,1.25
2023-02-28T07:21:56.182Z,1.08
2023-02-28T07:26:00.620Z,4.35
2023-02-28T07:30:04.930Z,1.40
2023-02-28T07:34:08.320Z,0.95
2023-02-28T07:38:16.732Z,1.70
2023-02-28T07:42:20.243Z,1.10
2023-02-28T07:46:23.993Z,1.27
2023-02-28T07:50:32.069Z,1.52
2023-02-28T07:54:39.684Z,1.58
2023-02-28T07:58:43.352Z,1.30
2023-02-28T08:02:46.739Z,2.60
2023-02-28T08:06:53.208Z,1.67
2023-02-28T08:11:00.306Z,2.70
2023-02-28T08:15:04.194Z,2.28
2023-02-28T08:19:07.686Z,1.90
2023-02-28T08:23:11.253Z,2.20
2023-02-28T08:27:14.894Z,1.90
2023-02-28T08:31:19.154Z,2.10
2023-02-28T08:35:23.530Z,2.25
2023-02-28T08:39:27.056Z,2.20
2023-02-28T08:43:30.804Z,2.30
2023-02-28T08:47:34.233Z,2.95
2023-02-28T08:51:37.816Z,1.80
2023-02-28T08:55:41.313Z,2.25
2023-02-28T08:59:44.910Z,1.73
2023-02-28T09:03:50.264Z,1.98
2023-02-28T09:07:53.726Z,2.88
2023-02-28T09:11:58.128Z,2.70
2023-02-28T09:16:03.610Z,1.50
2023-02-28T09:20:07.859Z,1.90
2023-02-28T09:24:13.454Z,1.92
2023-02-28T09:28:18.100Z,1.75
2023-02-28T09:32:21.787Z,1.65
2023-02-28T09:36:41.531Z,1.98
2023-02-28T09:40:55.687Z,1.77
2023-02-28T09:45:01.549Z,1.77
2023-02-28T09:49:12.434Z,2.30
2023-02-28T09:53:40.097Z,1.70
2023-02-28T09:57:44.112Z,2.13
2023-02-28T10:02:02.695Z,1.65
2023-02-28T10:06:06.039Z,2.05
2023-02-28T10:10:22.834Z,2.47
2023-02-28T10:14:29.596Z,2.00
2023-02-28T10:22:54.517Z,2.42
2023-02-28T10:27:15.623Z,2.50
2023-02-28T10:31:24.085Z,2.42
2023-02-28T10:35:31.525Z,2.58
2023-02-28T10:39:48.043Z,1.98
2023-02-28T10:43:51.473Z,1.95
2023-02-28T10:48:01.195Z,2.28
2023-02-28T10:52:04.782Z,2.42
2023-02-28T10:56:22.454Z,2.70
2023-02-28T11:00:26.930Z,2.15
2023-02-28T11:04:30.725Z,2.05
2023-02-28T11:08:35.665Z,2.17
2023-02-28T11:12:50.763Z,1.88
2023-02-28T11:21:04.099Z,2.65
2023-02-28T11:25:27.786Z,3.00
2023-02-28T11:29:36.193Z,2.70
2023-02-28T11:33:52.364Z,2.65
2023-02-28T11:37:55.779Z,3.30
2023-02-28T11:42:37.408Z,2.90
2023-02-28T11:46:54.623Z,3.92
2023-02-28T11:51:16.675Z,3.40
2023-02-28T11:55:37.888Z,3.10
2023-02-28T12:00:04.222Z,3.03
2023-02-28T12:04:32.440Z,3.58
2023-02-28T12:08:55.426Z,2.60
2023-02-28T12:13:25.430Z,2.15
2023-02-28T12:17:43.906Z,2.63
2023-02-28T12:22:05.830Z,2.35
2023-02-28T12:26:10.806Z,2.55
2023-02-28T12:30:23.867Z,2.70
2023-02-28T12:34:33.476Z,2.83
2023-02-28T12:38:46.310Z,4.30
2023-02-28T12:43:03.996Z,3.25
2023-02-28T12:47:15.302Z,3.22
2023-02-28T12:51:20.103Z,3.72
2023-02-28T12:55:27.032Z,4.10
2023-02-28T12:59:50.588Z,2.88
2023-02-28T13:04:15.805Z,3.28
2023-02-28T13:08:25.815Z,3.42
2023-02-28T13:12:29.611Z,2.92
2023-02-28T13:16:54.616Z,3.22
2023-02-28T13:20:58.143Z,3.67
2023-02-28T13:25:01.678Z,3.55
2023-02-28T13:29:19.728Z,3.60
2023-02-28T13:33:27.471Z,2.83
2023-02-28T13:37:39.630Z,5.78
2023-02-28T13:41:45.011Z,3.33
2023-02-28T13:46:12.867Z,5.40
2023-02-28T13:50:28.324Z,3.95
2023-02-28T13:55:10.064Z,4.43
2023-02-28T13:59:54.737Z,5.22
2023-02-28T14:04:17.341Z,5.00
2023-02-28T14:08:24.361Z,4.93
2023-02-28T14:13:00.144Z,3.58
2023-02-28T14:17:06.129Z,3.85
2023-02-28T14:21:09.504Z,4.43
2023-02-28T14:25:37.655Z,5.45
2023-02-28T14:30:08.142Z,3.30
2023-02-28T14:34:25.674Z,3.97
2023-02-28T14:38:33.531Z,5.25
2023-02-28T14:42:42.976Z,3.78
2023-02-28T14:46:49.576Z,5.10
2023-02-28T14:55:05.699Z,3.55
2023-02-28T14:59:44.429Z,3.50
2023-02-28T15:03:48.885Z,2.92
2023-02-28T15:08:05.511Z,3.08
2023-02-28T15:12:12.942Z,2.63
2023-02-28T15:16:32.962Z,3.53
2023-02-28T15:20:39.149Z,2.92
2023-02-28T15:24:50.648Z,2.83
2023-02-28T15:29:00.173Z,3.00
2023-02-28T15:33:25.357Z,2.53
2023-02-28T15:37:49.182Z,2.42
2023-02-28T15:41:52.846Z,3.22
2023-02-28T15:45:59.341Z,2.20
2023-02-28T15:50:08.718Z,3.00
2023-02-28T15:54:22.819Z,2.88
2023-02-28T15:58:26.980Z,5.82
2023-02-28T16:02:33.420Z,2.97
2023-02-28T16:06:43.226Z,4.05
2023-02-28T16:10:46.939Z,4.13
2023-02-28T16:14:53.605Z,3.65
2023-02-28T16:18:57.093Z,3.97
2023-02-28T16:23:02.729Z,3.47
2023-02-28T16:27:06.586Z,3.93
2023-02-28T16:31:15.727Z,3.88
2023-02-28T16:35:20.292Z,4.65
2023-02-28T16:39:23.871Z,8.30
2023-02-28T16:43:28.534Z,8.52
2023-02-28T16:47:34.206Z,14.70
2023-02-28T16:51:37.751Z,5.95
2023-02-28T16:55:41.458Z,9.50
2023-02-28T16:59:44.923Z,5.07
2023-02-28T17:03:48.794Z,5.43
2023-02-28T17:07:52.675Z,5.80
2023-02-28T17:11:57.874Z,4.78
2023-02-28T17:16:01.595Z,4.43
2023-02-28T17:20:07.001Z,4.70
2023-02-28T17:24:16.567Z,4.70
2023-02-28T17:28:23.265Z,6.72
2023-02-28T17:32:27.169Z,4.43
2023-02-28T17:36:30.892Z,3.97
2023-02-28T17:40:35.128Z,3.97
2023-02-28T17:44:39.060Z,4.05
2023-02-28T17:48:43.305Z,3.75
2023-02-28T17:52:47.492Z,2.55
2023-02-28T17:56:50.947Z,4.03
2023-02-28T18:00:55.914Z,3.25
2023-02-28T18:04:59.468Z,4.18
2023-02-28T18:09:04.695Z,3.80
2023-02-28T18:13:08.960Z,3.63
2023-02-28T18:17:13.963Z,5.85
2023-02-28T18:21:18.913Z,4.90
2023-02-28T18:25:23.540Z,3.78
2023-02-28T18:29:30.170Z,4.72
2023-02-28T18:33:34.281Z,5.03
2023-02-28T18:37:38.669Z,3.47
2023-02-28T18:41:43.212Z,7.28
2023-02-28T18:45:48.482Z,5.45
2023-02-28T18:49:51.883Z,5.72
2023-02-28T18:53:55.812Z,7.63
2023-02-28T18:58:00.334Z,6.70
2023-02-28T19:02:05.015Z,6.20
2023-02-28T19:06:10.877Z,6.50
2023-02-28T19:10:15.615Z,5.80
2023-02-28T19:14:21.331Z,5.38
2023-02-28T19:18:24.761Z,4.63
2023-02-28T19:22:30.493Z,4.78
2023-02-28T19:26:35.090Z,5.13
2023-02-28T19:30:42.258Z,4.53
2023-02-28T19:38:51.210Z,5.50
2023-02-28T19:42:55.233Z,5.68
2023-02-28T19:46:59.324Z,5.35
2023-02-28T19:51:06.137Z,9.70
2023-02-28T19:55:11.417Z,5.20
2023-02-28T19:59:21.216Z,6.60
2023-02-28T20:03:35.183Z,6.93
2023-02-28T20:07:39.335Z,6.50
2023-02-28T20:11:46.108Z,6.65
2023-02-28T20:15:50.694Z,5.78
2023-02-28T20:19:55.318Z,4.78
2023-02-28T20:23:59.344Z,6.78
2023-02-28T20:28:03.323Z,6.25
2023-02-28T20:32:08.869Z,5.55
2023-02-28T20:36:13.180Z,7.07
2023-02-28T20:40:19.622Z,5.47
2023-02-28T20:44:23.664Z,5.07
2023-02-28T20:48:27.908Z,6.55
2023-02-28T20:52:31.680Z,5.30
2023-02-28T20:56:35.758Z,7.65
2023-02-28T21:00:39.359Z,4.93
2023-02-28T21:04:43.086Z,6.78
2023-02-28T21:08:47.323Z,6.32
2023-02-28T21:12:54.122Z,5.75
2023-02-28T21:16:58.383Z,7.25
2023-02-28T21:21:07.794Z,7.57
2023-02-28T21:25:11.605Z,4.93
2023-02-28T21:29:15.832Z,6.38
2023-02-28T21:33:19.613Z,6.65
2023-02-28T21:37:30.937Z,13.98
2023-02-28T21:41:35.510Z,8.82
2023-02-28T21:45:40.698Z,5.95
2023-02-28T21:49:44.749Z,7.15
2023-02-28T21:53:48.979Z,6.05
2023-02-28T21:57:52.486Z,6.18
2023-02-28T22:01:56.345Z,5.80
2023-02-28T22:06:00.645Z,4.93
2023-02-28T22:10:05.477Z,5.88
2023-02-28T22:14:12.419Z,4.78
2023-02-28T22:18:16.091Z,5.35
2023-02-28T22:22:20.345Z,5.20
2023-02-28T22:26:23.943Z,5.15
2023-02-28T22:30:28.366Z,4.97
2023-02-28T22:34:32.639Z,3.78
2023-02-28T22:38:36.387Z,4.53
2023-02-28T22:42:40.781Z,4.05
2023-02-28T22:46:45.744Z,4.13
2023-02-28T22:50:49.318Z,5.07
2023-02-28T22:54:53.582Z,3.42
2023-02-28T22:58:59.080Z,3.75
2023-02-28T23:03:02.536Z,2.70
2023-02-28T23:07:06.614Z,4.68
2023-02-28T23:11:11.454Z,5.18
2023-02-28T23:15:14.924Z,5.50
2023-02-28T23:19:23.400Z,4.03
2023-02-28T23:23:27.789Z,3.63
2023-02-28T23:27:31.245Z,3.75
2023-02-28T23:31:34.866Z,4.65
2023-02-28T23:35:38.299Z,3.80
2023-02-28T23:39:41.819Z,3.08
2023-02-28T23:43:45.502Z,4.88
2023-02-28T23:47:48.897Z,3.88
2023-02-28T23:51:54.687Z,3.00
2023-02-28T23:55:58.950Z,3.90
